createdAt,value
2024-03-02T00:00:28.794Z,7.33
2024-03-02T00:02:55.494Z,7.31
2024-03-02T00:05:23.346Z,7.33
2024-03-02T00:07:57.659Z,7.50
2024-03-02T00:10:30.751Z,7.47
2024-03-02T00:12:58.145Z,7.44
2024-03-02T00:15:52.777Z,7.36
2024-03-02T00:18:26.652Z,7.31
2024-03-02T00:20:57.816Z,7.38
2024-03-02T00:23:25.810Z,7.34
2024-03-02T00:25:57.159Z,7.34
2024-03-02T00:28:25.859Z,7.28
2024-03-02T00:30:55.195Z,7.28
2024-03-02T00:33:22.468Z,7.26
2024-03-02T00:35:50.385Z,7.29
2024-03-02T00:38:17.449Z,7.32
2024-03-02T00:40:44.310Z,7.33
2024-03-02T00:43:52.354Z,7.40
2024-03-02T00:46:20.562Z,7.41
2024-03-02T00:48:57.511Z,7.47
2024-03-02T00:51:26.090Z,7.36
2024-03-02T00:53:56.934Z,7.42
2024-03-02T00:56:24.898Z,7.42
2024-03-02T00:58:53.177Z,7.35
2024-03-02T01:01:20.920Z,7.36
2024-03-02T01:03:47.912Z,7.23
2024-03-02T01:06:15.072Z,7.25
2024-03-02T01:08:41.609Z,7.40
2024-03-02T01:11:08.269Z,7.29
2024-03-02T01:13:35.014Z,7.46
2024-03-02T01:16:02.319Z,7.44
2024-03-02T01:18:29.078Z,7.46
2024-03-02T01:20:58.561Z,7.37
2024-03-02T01:23:25.412Z,7.50
2024-03-02T01:25:52.952Z,7.43
2024-03-02T01:28:20.168Z,7.36
2024-03-02T01:30:46.684Z,7.39
2024-03-02T01:33:13.481Z,7.37
2024-03-02T01:35:40.123Z,7.34
2024-03-02T01:38:09.537Z,7.31
2024-03-02T01:40:37.117Z,7.35
2024-03-02T01:43:05.158Z,7.40
2024-03-02T01:45:33.113Z,7.25
2024-03-02T01:47:59.793Z,7.37
2024-03-02T01:50:32.156Z,7.34
2024-03-02T01:52:59.898Z,7.20
2024-03-02T01:55:27.110Z,7.35
2024-03-02T01:57:55.375Z,7.34
2024-03-02T02:00:23.028Z,7.39
2024-03-02T02:02:49.963Z,7.21
2024-03-02T02:05:17.099Z,7.29
2024-03-02T02:07:46.420Z,7.27
2024-03-02T02:10:13.020Z,7.25
2024-03-02T02:12:39.676Z,7.26
2024-03-02T02:15:27.599Z,7.30
2024-03-02T02:17:55.532Z,7.23
2024-03-02T02:20:22.186Z,7.25
2024-03-02T02:23:14.943Z,7.22
2024-03-02T02:25:41.700Z,7.20
2024-03-02T02:28:08.167Z,7.20
2024-03-02T02:30:34.910Z,7.06
2024-03-02T02:33:01.974Z,7.26
2024-03-02T02:35:29.004Z,7.12
2024-03-02T02:37:57.825Z,7.17
2024-03-02T02:40:24.872Z,7.33
2024-03-02T02:42:53.488Z,7.40
2024-03-02T02:45:21.913Z,7.43
2024-03-02T02:47:48.656Z,7.44
2024-03-02T02:50:15.467Z,7.44
2024-03-02T02:52:43.556Z,7.44
2024-03-02T02:55:13.124Z,7.48
2024-03-02T02:57:44.271Z,7.56
2024-03-02T03:00:18.295Z,7.70
2024-03-02T03:02:48.167Z,7.71
2024-03-02T03:05:15.970Z,7.71
2024-03-02T03:07:45.056Z,7.81
2024-03-02T03:10:12.182Z,7.49
2024-03-02T03:12:39.048Z,7.64
2024-03-02T03:15:07.847Z,7.48
2024-03-02T03:17:34.761Z,7.40
2024-03-02T03:20:02.182Z,7.39
2024-03-02T03:22:28.718Z,7.70
2024-03-02T03:24:55.261Z,7.62
2024-03-02T03:27:21.835Z,7.61
2024-03-02T03:29:48.314Z,7.58
2024-03-02T03:32:15.163Z,7.53
2024-03-02T03:34:42.175Z,7.46
2024-03-02T03:37:08.773Z,7.47
2024-03-02T03:39:36.961Z,7.51
2024-03-02T03:42:03.972Z,7.47
2024-03-02T03:44:30.565Z,7.45
2024-03-02T03:46:57.076Z,7.57
2024-03-02T03:49:23.568Z,7.61
2024-03-02T03:51:50.555Z,7.61
2024-03-02T03:54:17.109Z,7.57
2024-03-02T03:56:43.608Z,7.58
2024-03-02T03:59:10.097Z,7.60
2024-03-02T04:01:36.633Z,7.61
2024-03-02T04:04:04.682Z,7.63
2024-03-02T04:06:31.542Z,7.57
2024-03-02T04:08:58.174Z,7.59
2024-03-02T04:11:24.791Z,7.57
2024-03-02T04:13:51.454Z,7.61
2024-03-02T04:16:18.668Z,7.27
2024-03-02T04:18:45.931Z,7.66
2024-03-02T04:21:12.752Z,7.32
2024-03-02T04:23:39.730Z,7.39
2024-03-02T04:26:06.627Z,7.51
2024-03-02T04:28:34.308Z,7.37
2024-03-02T04:31:00.963Z,7.58
2024-03-02T04:33:27.603Z,7.35
2024-03-02T04:35:54.240Z,7.60
2024-03-02T04:38:20.818Z,7.39
2024-03-02T04:40:47.411Z,7.29
2024-03-02T04:43:17.484Z,7.64
2024-03-02T04:45:44.129Z,7.47
2024-03-02T04:48:10.669Z,7.69
2024-03-02T04:50:37.117Z,7.68
2024-03-02T04:53:03.915Z,7.73
2024-03-02T04:55:30.403Z,7.77
2024-03-02T04:57:57.253Z,7.77
2024-03-02T05:00:24.090Z,7.74
2024-03-02T05:02:50.963Z,7.71
2024-03-02T05:05:17.645Z,7.79
2024-03-02T05:07:45.076Z,7.62
2024-03-02T05:10:15.480Z,7.59
2024-03-02T05:12:42.535Z,7.54
2024-03-02T05:15:11.158Z,7.48
2024-03-02T05:17:38.775Z,7.57
2024-03-02T05:20:09.244Z,7.58
2024-03-02T05:22:36.301Z,7.55
2024-03-02T05:25:03.721Z,7.68
2024-03-02T05:27:30.372Z,7.50
2024-03-02T05:29:57.149Z,7.64
2024-03-02T05:32:23.611Z,7.64
2024-03-02T05:34:51.764Z,7.63
2024-03-02T05:37:18.735Z,7.67
2024-03-02T05:39:45.434Z,7.72
2024-03-02T05:42:11.950Z,7.72
2024-03-02T05:44:38.510Z,7.69
2024-03-02T05:47:06.270Z,7.70
2024-03-02T05:49:32.741Z,7.72
2024-03-02T05:51:59.409Z,7.56
2024-03-02T05:54:26.074Z,7.46
2024-03-02T05:56:52.667Z,7.54
2024-03-02T05:59:19.730Z,7.48
2024-03-02T06:01:48.281Z,7.56
2024-03-02T06:04:15.464Z,7.55
2024-03-02T06:09:27.873Z,7.54
2024-03-02T06:11:55.217Z,7.50
2024-03-02T06:14:21.978Z,7.55
2024-03-02T06:16:48.501Z,7.38
2024-03-02T06:19:15.003Z,7.64
2024-03-02T06:21:41.984Z,7.45
2024-03-02T06:24:09.158Z,7.50
2024-03-02T06:26:36.147Z,7.48
2024-03-02T06:31:47.860Z,7.51
2024-03-02T06:34:14.516Z,7.44
2024-03-02T06:39:27.395Z,7.42
2024-03-02T06:44:42.973Z,7.66
2024-03-02T06:47:09.925Z,7.48
2024-03-02T06:49:37.138Z,7.45
2024-03-02T06:52:04.197Z,7.53
2024-03-02T07:27:21.769Z,7.68
2024-03-02T07:36:40.189Z,8.04
2024-03-02T08:26:47.496Z,8.06
2024-03-02T08:45:40.803Z,8.72
2024-03-02T08:48:09.548Z,8.53
2024-03-02T08:50:38.778Z,8.54
2024-03-02T08:53:08.253Z,8.79
2024-03-02T08:55:35.500Z,8.65
2024-03-02T08:58:02.673Z,8.58
2024-03-02T09:00:29.382Z,8.63
2024-03-02T09:02:55.888Z,8.89
2024-03-02T09:05:22.495Z,9.08
2024-03-02T09:07:49.070Z,9.02
2024-03-02T09:10:17.660Z,9.01
2024-03-02T09:12:44.383Z,9.01
2024-03-02T09:15:11.036Z,9.09
2024-03-02T09:17:37.610Z,9.19
2024-03-02T09:20:05.340Z,9.05
2024-03-02T09:22:32.035Z,8.93
2024-03-02T09:25:00.570Z,9.01
2024-03-02T09:27:27.314Z,9.28
2024-03-02T09:29:53.982Z,9.15
2024-03-02T09:32:20.484Z,9.27
2024-03-02T09:35:13.134Z,9.24
2024-03-02T09:37:39.637Z,9.36
2024-03-02T09:40:14.183Z,9.35
2024-03-02T09:42:41.660Z,9.28
2024-03-02T09:46:11.175Z,9.14
2024-03-02T09:53:39.093Z,9.60
2024-03-02T09:57:08.113Z,9.67
2024-03-02T09:59:45.100Z,9.84
2024-03-02T10:06:31.143Z,9.76
2024-03-02T10:09:04.089Z,9.69
2024-03-02T10:11:43.405Z,10.33
2024-03-02T10:17:50.668Z,10.63
2024-03-02T10:21:21.174Z,10.95
2024-03-02T10:24:09.757Z,10.85
2024-03-02T10:26:43.104Z,10.74
2024-03-02T10:29:13.334Z,10.44
2024-03-02T10:31:47.127Z,10.78
2024-03-02T10:34:14.801Z,11.22
2024-03-02T10:36:44.452Z,11.30
2024-03-02T10:39:11.046Z,11.28
2024-03-02T10:41:39.251Z,11.00
2024-03-02T10:44:10.379Z,10.86
2024-03-02T10:46:38.244Z,10.71
2024-03-02T10:49:08.453Z,10.82
2024-03-02T10:51:38.035Z,11.15
2024-03-02T10:54:05.835Z,10.93
2024-03-02T10:56:34.573Z,11.11
2024-03-02T10:59:24.026Z,11.27
2024-03-02T11:01:51.753Z,11.84
2024-03-02T11:04:20.663Z,12.03
2024-03-02T11:06:51.078Z,12.32
2024-03-02T11:09:21.052Z,12.35
2024-03-02T11:11:56.110Z,12.39
2024-03-02T11:14:25.523Z,12.02
2024-03-02T11:16:53.217Z,12.61
2024-03-02T11:19:20.686Z,12.92
2024-03-02T11:21:47.905Z,14.21
2024-03-02T11:24:39.529Z,14.14
2024-03-02T11:27:13.696Z,13.74
2024-03-02T11:29:44.533Z,14.48
2024-03-02T11:32:16.599Z,15.09
2024-03-02T11:34:46.418Z,16.09
2024-03-02T11:37:14.882Z,16.28
2024-03-02T11:39:45.444Z,18.14
2024-03-02T11:42:15.238Z,19.18
2024-03-02T11:44:47.623Z,18.54
2024-03-02T11:47:16.145Z,18.15
2024-03-02T11:49:47.505Z,17.15
2024-03-02T11:52:16.313Z,16.73
2024-03-02T11:54:48.161Z,15.89
2024-03-02T11:57:16.835Z,15.43
2024-03-02T11:59:44.578Z,15.32
2024-03-02T12:02:25.395Z,15.24
2024-03-02T12:04:52.571Z,15.09
2024-03-02T12:07:25.524Z,15.40
2024-03-02T12:10:03.356Z,14.63
2024-03-02T12:12:30.414Z,14.54
2024-03-02T12:14:57.283Z,15.17
2024-03-02T12:17:24.223Z,15.26
2024-03-02T12:19:50.775Z,15.40
2024-03-02T12:22:17.672Z,15.37
2024-03-02T12:24:46.605Z,15.54
2024-03-02T12:27:14.392Z,15.28
2024-03-02T12:29:41.169Z,15.07
2024-03-02T12:32:08.221Z,14.55
2024-03-02T12:34:35.027Z,14.13
2024-03-02T12:37:01.910Z,14.51
2024-03-02T12:39:29.018Z,14.63
2024-03-02T12:41:57.038Z,14.38
2024-03-02T12:44:23.619Z,14.19
2024-03-02T12:46:50.417Z,13.91
2024-03-02T12:49:17.684Z,14.07
2024-03-02T12:51:45.069Z,14.09
2024-03-02T12:54:12.114Z,13.83
2024-03-02T12:56:39.270Z,13.87
2024-03-02T12:59:06.737Z,14.03
2024-03-02T13:01:33.586Z,13.93
2024-03-02T13:04:00.464Z,13.83
2024-03-02T13:06:30.554Z,13.72
2024-03-02T13:08:57.086Z,14.17
2024-03-02T13:11:25.744Z,14.04
2024-03-02T13:13:52.727Z,14.28
2024-03-02T13:16:24.997Z,13.93
2024-03-02T13:18:57.122Z,13.69
2024-03-02T13:21:24.107Z,14.14
2024-03-02T13:23:50.775Z,13.79
2024-03-02T13:26:18.121Z,14.16
2024-03-02T13:28:44.763Z,14.10
2024-03-02T13:31:11.435Z,14.43
2024-03-02T13:33:38.034Z,14.28
2024-03-02T13:36:04.991Z,14.33
2024-03-02T13:38:31.738Z,14.60
2024-03-02T13:40:58.494Z,14.53
2024-03-02T13:43:25.523Z,14.64
2024-03-02T13:45:53.291Z,14.47
2024-03-02T13:48:20.721Z,14.36
2024-03-02T13:50:47.764Z,14.69
2024-03-02T13:53:15.619Z,14.79
2024-03-02T13:55:43.338Z,14.92
2024-03-02T13:58:10.918Z,14.97
2024-03-02T14:00:39.766Z,15.24
2024-03-02T14:03:09.997Z,15.49
2024-03-02T14:05:38.140Z,15.52
2024-03-02T14:08:05.375Z,15.78
2024-03-02T14:10:33.363Z,16.33
2024-03-02T14:13:00.010Z,16.13
2024-03-02T14:15:26.728Z,16.05
2024-03-02T14:17:55.123Z,17.23
2024-03-02T14:20:23.629Z,17.95
2024-03-02T14:22:50.783Z,17.65
2024-03-02T14:25:18.610Z,16.31
2024-03-02T14:30:16.860Z,16.61
2024-03-02T14:32:43.540Z,16.59
2024-03-02T14:35:11.402Z,16.55
2024-03-02T14:37:38.570Z,15.71
2024-03-02T14:40:07.646Z,15.92
2024-03-02T14:42:34.844Z,15.48
2024-03-02T14:45:01.588Z,15.40
2024-03-02T14:47:28.326Z,15.26
2024-03-02T14:49:54.983Z,15.11
2024-03-02T14:52:22.023Z,15.85
2024-03-02T14:54:48.674Z,16.85
2024-03-02T14:57:15.511Z,16.43
2024-03-02T14:59:42.290Z,15.12
2024-03-02T15:02:09.583Z,15.89
2024-03-02T15:04:36.651Z,16.48
2024-03-02T15:07:03.320Z,16.86
2024-03-02T15:09:29.896Z,15.80
2024-03-02T15:11:56.485Z,16.28
2024-03-02T15:14:23.216Z,16.10
2024-03-02T15:16:50.594Z,16.01
2024-03-02T15:19:17.471Z,15.46
2024-03-02T15:21:44.016Z,15.25
2024-03-02T15:24:10.580Z,14.92
2024-03-02T15:26:37.220Z,14.79
2024-03-02T15:29:03.969Z,14.91
2024-03-02T15:31:30.477Z,14.26
2024-03-02T15:33:58.291Z,14.56
2024-03-02T15:36:25.443Z,14.81
2024-03-02T15:38:52.009Z,15.09
2024-03-02T15:41:18.708Z,14.99
2024-03-02T15:43:45.535Z,14.73
2024-03-02T15:46:12.239Z,14.61
2024-03-02T15:48:38.865Z,14.41
2024-03-02T15:51:06.880Z,14.40
2024-03-02T15:53:33.982Z,14.43
2024-03-02T15:56:00.673Z,14.30
2024-03-02T15:58:27.503Z,14.02
2024-03-02T16:00:54.210Z,13.76
2024-03-02T16:03:21.142Z,13.70
2024-03-02T16:05:47.823Z,13.73
2024-03-02T16:08:14.335Z,13.68
2024-03-02T16:10:41.205Z,13.56
2024-03-02T16:13:07.853Z,13.45
2024-03-02T16:15:35.288Z,13.48
2024-03-02T16:18:03.086Z,13.41
2024-03-02T16:20:30.114Z,13.37
2024-03-02T16:22:56.755Z,13.36
2024-03-02T16:25:26.102Z,13.17
2024-03-02T16:27:53.870Z,13.09
2024-03-02T16:30:25.808Z,13.17
2024-03-02T16:32:52.576Z,12.90
2024-03-02T16:35:32.040Z,12.91
2024-03-02T16:37:58.686Z,12.92
2024-03-02T16:43:10.633Z,12.56
2024-03-02T16:45:37.361Z,12.57
2024-03-02T16:48:06.100Z,12.27
2024-03-02T16:50:33.825Z,12.39
2024-03-02T16:53:00.876Z,12.44
2024-03-02T16:55:27.530Z,12.37
2024-03-02T16:57:54.229Z,12.30
2024-03-02T17:00:21.014Z,12.31
2024-03-02T17:02:48.327Z,12.27
2024-03-02T17:05:15.022Z,12.32
2024-03-02T17:07:41.936Z,12.22
2024-03-02T17:10:09.006Z,12.28
2024-03-02T17:12:36.443Z,12.24
2024-03-02T17:15:03.543Z,12.24
2024-03-02T17:17:30.334Z,12.08
2024-03-02T17:19:56.887Z,12.09
2024-03-02T17:22:25.022Z,12.07
2024-03-02T17:24:53.331Z,11.97
2024-03-02T17:27:20.284Z,11.96
2024-03-02T17:29:48.620Z,12.05
2024-03-02T17:32:15.257Z,12.05
2024-03-02T17:34:42.094Z,12.02
2024-03-02T17:37:08.740Z,11.88
2024-03-02T17:39:35.328Z,11.73
2024-03-02T17:42:02.028Z,11.71
2024-03-02T17:44:28.571Z,11.69
2024-03-02T17:46:58.131Z,11.73
2024-03-02T17:49:25.840Z,11.56
2024-03-02T17:51:52.585Z,11.47
2024-03-02T17:54:19.169Z,11.59
2024-03-02T17:56:45.785Z,11.59
2024-03-02T17:59:12.289Z,11.55
2024-03-02T18:01:38.866Z,11.54
2024-03-02T18:04:09.773Z,11.54
2024-03-02T18:06:37.330Z,11.34
2024-03-02T18:09:04.327Z,11.37
2024-03-02T18:11:31.084Z,11.30
2024-03-02T18:13:57.656Z,11.26
2024-03-02T18:16:26.395Z,11.18
2024-03-02T18:18:53.096Z,11.20
2024-03-02T18:21:19.801Z,11.12
2024-03-02T18:23:47.738Z,11.08
2024-03-02T18:26:14.639Z,11.22
2024-03-02T18:28:42.235Z,11.09
2024-03-02T18:31:08.864Z,11.15
2024-03-02T18:33:35.955Z,11.03
2024-03-02T18:36:02.752Z,11.04
2024-03-02T18:38:29.448Z,10.77
2024-03-02T18:40:55.971Z,10.82
2024-03-02T18:43:22.475Z,10.79
2024-03-02T18:45:49.455Z,10.73
2024-03-02T18:48:16.457Z,10.67
2024-03-02T18:50:43.316Z,10.47
2024-03-02T18:53:13.902Z,10.58
2024-03-02T18:55:41.140Z,10.56
2024-03-02T18:58:08.396Z,10.58
2024-03-02T19:00:35.172Z,10.54
2024-03-02T19:03:02.001Z,10.43
2024-03-02T19:05:28.708Z,10.41
2024-03-02T19:07:55.259Z,10.22
2024-03-02T19:10:21.688Z,10.22
2024-03-02T19:12:49.033Z,10.20
2024-03-02T19:15:15.692Z,10.24
2024-03-02T19:17:42.310Z,10.21
2024-03-02T19:20:12.079Z,10.06
2024-03-02T19:25:05.775Z,10.07
2024-03-02T19:27:32.309Z,9.90
2024-03-02T19:29:58.862Z,9.85
2024-03-02T19:32:25.314Z,9.89
2024-03-02T19:34:51.857Z,9.91
2024-03-02T19:37:18.545Z,9.87
2024-03-02T19:39:45.079Z,9.86
2024-03-02T19:42:11.656Z,9.81
2024-03-02T19:44:38.244Z,9.80
2024-03-02T19:47:04.766Z,9.81
2024-03-02T19:49:37.743Z,9.73
2024-03-02T19:53:07.176Z,9.72
2024-03-02T19:56:25.320Z,9.82
2024-03-02T19:59:54.182Z,9.79
2024-03-02T20:06:39.165Z,9.87
2024-03-02T20:10:08.242Z,9.88
2024-03-02T20:12:52.209Z,9.66
2024-03-02T20:20:07.239Z,9.58
2024-03-02T20:23:37.204Z,9.56
2024-03-02T20:26:06.095Z,9.48
2024-03-02T20:28:32.788Z,9.44
2024-03-02T20:30:59.399Z,9.42
2024-03-02T20:33:26.332Z,9.39
2024-03-02T20:35:52.824Z,9.34
2024-03-02T20:38:19.353Z,9.35
2024-03-02T20:40:47.783Z,9.34
2024-03-02T20:43:15.740Z,9.28
2024-03-02T20:45:44.542Z,9.30
2024-03-02T20:48:11.616Z,9.28
2024-03-02T20:50:38.116Z,9.29
2024-03-02T20:53:08.124Z,9.24
2024-03-02T20:55:35.974Z,9.23
2024-03-02T20:58:02.864Z,9.09
2024-03-02T21:00:29.406Z,9.25
2024-03-02T21:02:56.048Z,9.25
2024-03-02T21:05:22.622Z,9.30
2024-03-02T21:07:50.595Z,9.24
2024-03-02T21:10:17.337Z,9.22
2024-03-02T21:12:44.132Z,9.17
2024-03-02T21:15:11.161Z,9.13
2024-03-02T21:17:37.890Z,9.00
2024-03-02T21:20:07.809Z,9.11
2024-03-02T21:22:34.363Z,9.13
2024-03-02T21:25:03.355Z,8.99
2024-03-02T21:27:29.881Z,9.07
2024-03-02T21:29:56.413Z,9.00
2024-03-02T21:32:22.848Z,8.93
2024-03-02T21:34:49.470Z,8.93
2024-03-02T21:37:16.137Z,8.91
2024-03-02T21:39:46.989Z,9.01
2024-03-02T21:42:14.151Z,8.99
2024-03-02T21:44:40.688Z,9.03
2024-03-02T21:47:07.685Z,9.02
2024-03-02T21:49:34.577Z,9.02
2024-03-02T21:53:04.203Z,9.07
2024-03-02T22:15:04.099Z,8.92
2024-03-02T22:17:30.684Z,8.90
2024-03-02T22:19:58.310Z,8.86
2024-03-02T22:22:24.948Z,8.85
2024-03-02T22:24:51.487Z,8.86
2024-03-02T22:27:18.029Z,8.73
2024-03-02T22:29:44.504Z,8.79
2024-03-02T22:32:11.004Z,8.70
2024-03-02T22:34:37.515Z,8.77
2024-03-02T22:37:04.217Z,8.78
2024-03-02T22:39:30.735Z,8.73
2024-03-02T22:41:57.242Z,8.75
2024-03-02T22:44:23.730Z,8.80
2024-03-02T22:46:50.271Z,8.74
2024-03-02T22:49:17.055Z,8.74
2024-03-02T22:51:43.589Z,8.74
2024-03-02T22:54:10.075Z,8.70
2024-03-02T22:56:36.517Z,8.57
2024-03-02T22:59:03.384Z,8.71
2024-03-02T23:01:30.238Z,8.65
2024-03-02T23:03:56.813Z,8.67
2024-03-02T23:06:24.102Z,8.63
2024-03-02T23:08:50.547Z,8.61
2024-03-02T23:11:17.222Z,8.64
2024-03-02T23:13:43.747Z,8.49
2024-03-02T23:16:10.286Z,8.58
2024-03-02T23:18:36.843Z,8.59
2024-03-02T23:21:04.181Z,8.47
2024-03-02T23:23:30.588Z,8.54
2024-03-02T23:25:57.115Z,8.52
2024-03-02T23:28:23.610Z,8.49
2024-03-02T23:30:50.232Z,8.49
2024-03-02T23:33:16.788Z,8.43
2024-03-02T23:35:43.370Z,8.29
2024-03-02T23:38:09.900Z,8.30
2024-03-02T23:41:08.537Z,8.41
2024-03-02T23:43:36.697Z,8.37
2024-03-02T23:46:04.630Z,8.44
2024-03-02T23:48:31.159Z,8.30
2024-03-02T23:50:57.610Z,8.41
2024-03-02T23:53:24.122Z,8.40
2024-03-02T23:55:52.865Z,8.40
2024-03-02T23:58:20.498Z,8.37
